Time;durP1;ratioP1;P1;durP2;ratioP2;P2;SDS_P1;SDS_P2;PMS_P1;PMS_P2;Temp;Humidity;BMP_temperature;BMP_pressure;BME280_temperature;BME280_humidity;BME280_pressure;Samples;Min_cycle;Max_cycle;Signal;HPM_P1;HPM_P2
2021/11/02 00:02:12;;;;;;;6.15;1.35;;;4.70;99.90;;;;;;5042595;28;20049;-66
2021/11/02 00:04:38;;;;;;;9.18;1.38;;;4.70;99.90;;;;;;5040939;28;20064;-67
2021/11/02 00:07:04;;;;;;;5.68;1.30;;;4.70;99.90;;;;;;5042368;28;20052;-66
2021/11/02 00:09:33;;;;;;;5.28;1.33;;;4.60;99.90;;;;;;5042990;28;20037;-66
2021/11/02 00:12:00;;;;;;;4.63;1.10;;;4.60;99.90;;;;;;5042680;28;20092;-66
2021/11/02 00:14:27;;;;;;;5.63;1.42;;;4.60;99.90;;;;;;5042320;28;20052;-67
2021/11/02 00:16:57;;;;;;;6.53;1.63;;;4.70;99.90;;;;;;5040334;28;20120;-66
2021/11/02 00:19:24;;;;;;;6.82;1.70;;;4.70;99.90;;;;;;5028758;28;20045;-67
2021/11/02 00:21:52;;;;;;;4.28;1.23;;;4.70;99.90;;;;;;5025899;28;20061;-66
2021/11/02 00:26:59;;;;;;;6.65;1.30;;;4.80;99.90;;;;;;5028719;28;20071;-67
2021/11/02 00:29:24;;;;;;;5.45;1.50;;;4.70;99.90;;;;;;5028715;28;20029;-65
2021/11/02 00:31:50;;;;;;;6.03;1.58;;;4.70;99.90;;;;;;5028968;28;20071;-64
2021/11/02 00:34:15;;;;;;;6.50;1.65;;;4.70;99.90;;;;;;5028569;28;20041;-63
2021/11/02 00:36:41;;;;;;;3.78;0.93;;;4.80;99.90;;;;;;5028456;28;20107;-64
2021/11/02 00:39:07;;;;;;;5.85;1.45;;;4.80;99.90;;;;;;5029095;28;20396;-64
2021/11/02 00:41:33;;;;;;;2.78;1.25;;;4.70;99.90;;;;;;5027465;28;20106;-63
2021/11/02 00:43:59;;;;;;;4.70;1.48;;;4.80;99.90;;;;;;5028792;28;20087;-64
2021/11/02 00:46:31;;;;;;;;;;;4.70;99.90;;;;;;5028441;28;20049;-63
2021/11/02 00:48:58;;;;;;;5.82;1.38;;;4.70;99.90;;;;;;5028772;28;20020;-62
2021/11/02 00:51:25;;;;;;;6.88;1.38;;;4.70;99.90;;;;;;5028724;28;20493;-63
2021/11/02 00:53:51;;;;;;;8.57;1.40;;;4.60;99.90;;;;;;5028620;28;20116;-64
2021/11/02 00:56:16;;;;;;;4.13;1.20;;;4.70;99.90;;;;;;5027417;28;20124;-63
2021/11/02 00:58:42;;;;;;;;;;;4.80;99.90;;;;;;5028751;28;20046;-63
2021/11/02 01:01:07;;;;;;;10.63;1.27;;;4.90;99.90;;;;;;5027765;28;19920;-63
2021/11/02 01:03:34;;;;;;;5.80;1.45;;;5.00;99.90;;;;;;5028156;28;20053;-63
2021/11/02 01:06:00;;;;;;;7.60;1.73;;;5.20;99.90;;;;;;5027417;28;20049;-63
2021/11/02 01:08:26;;;;;;;6.95;1.20;;;5.30;99.90;;;;;;5028520;28;20520;-63
2021/11/02 01:10:52;;;;;;;12.05;1.52;;;5.30;99.90;;;;;;5028267;28;20042;-63
2021/11/02 01:13:19;;;;;;;7.35;1.70;;;5.30;99.90;;;;;;5028228;28;20164;-63
2021/11/02 01:15:45;;;;;;;3.03;1.10;;;5.40;99.90;;;;;;5027398;28;20402;-64
2021/11/02 01:18:11;;;;;;;7.85;2.75;;;5.40;99.90;;;;;;5028103;28;20042;-64
2021/11/02 01:20:38;;;;;;;7.60;2.25;;;5.50;99.90;;;;;;5028366;28;20053;-64
2021/11/02 01:23:04;;;;;;;11.70;1.42;;;5.40;99.90;;;;;;5026794;28;20111;-64
2021/11/02 01:25:29;;;;;;;7.70;1.85;;;5.50;99.90;;;;;;5027834;28;20127;-64
2021/11/02 01:27:55;;;;;;;5.15;1.20;;;5.60;99.90;;;;;;5027259;28;20048;-63
2021/11/02 01:30:21;;;;;;;4.82;1.20;;;5.60;99.90;;;;;;5025607;28;20029;-63
2021/11/02 01:32:47;;;;;;;8.93;1.80;;;5.70;99.90;;;;;;5027834;28;20045;-64
2021/11/02 01:35:13;;;;;;;;;;;5.90;99.90;;;;;;5027493;28;20422;-64
2021/11/02 01:37:39;;;;;;;4.95;1.48;;;5.90;99.90;;;;;;5026806;28;19921;-63
2021/11/02 01:40:08;;;;;;;3.42;1.00;;;6.00;99.90;;;;;;5027848;28;20118;-61
2021/11/02 01:42:35;;;;;;;2.15;0.57;;;6.00;99.90;;;;;;5027458;28;20073;-63
2021/11/02 01:45:01;;;;;;;5.78;0.80;;;6.00;99.90;;;;;;5026819;28;20045;-63
2021/11/02 01:47:28;;;;;;;3.47;0.45;;;6.10;99.90;;;;;;5027008;28;20052;-63
2021/11/02 01:49:53;;;;;;;2.88;0.60;;;6.10;99.90;;;;;;5028422;28;20041;-63
2021/11/02 01:52:19;;;;;;;2.72;0.63;;;6.10;99.90;;;;;;5027442;28;20612;-63
2021/11/02 01:54:46;;;;;;;2.83;0.63;;;6.10;99.90;;;;;;5027691;28;20052;-63
2021/11/02 01:57:12;;;;;;;1.60;0.68;;;6.10;99.90;;;;;;5027968;28;20045;-63
2021/11/02 01:59:39;;;;;;;8.85;2.05;;;6.10;99.90;;;;;;5027172;28;20099;-63
2021/11/02 02:02:09;;;;;;;13.25;0.68;;;6.00;99.90;;;;;;5025959;28;20124;-63
2021/11/02 02:05:06;;;;;;;3.53;0.63;;;5.90;99.90;;;;;;5027129;28;20076;-63
2021/11/02 02:07:38;;;;;;;;;;;5.90;99.90;;;;;;5017992;28;20137;-63
2021/11/02 02:10:42;;;;;;;2.47;0.68;;;5.80;99.90;;;;;;5027475;28;19949;-63
2021/11/02 02:13:16;;;;;;;3.40;0.85;;;5.80;99.90;;;;;;5001335;28;20403;-63
2021/11/02 02:16:12;;;;;;;3.15;0.52;;;5.70;99.90;;;;;;5006285;28;20413;-63
2021/11/02 02:18:45;;;;;;;4.45;0.50;;;5.70;99.90;;;;;;5007456;28;20038;-63
2021/11/02 02:21:36;;;;;;;2.38;0.63;;;5.70;99.90;;;;;;5007277;28;20038;-63
2021/11/02 02:24:17;;;;;;;11.27;1.45;;;5.70;99.90;;;;;;5006890;28;20088;-63
2021/11/02 02:26:57;;;;;;;2.40;0.30;;;5.70;99.90;;;;;;5006790;28;20387;-63
2021/11/02 02:29:24;;;;;;;2.53;0.52;;;5.70;99.90;;;;;;5011220;28;20052;-63
2021/11/02 02:31:51;;;;;;;1.40;0.32;;;5.70;99.90;;;;;;5025887;28;20671;-63
2021/11/02 02:34:19;;;;;;;3.40;0.50;;;5.70;99.90;;;;;;5027304;28;20053;-63
2021/11/02 02:36:47;;;;;;;1.55;0.40;;;5.70;99.90;;;;;;5026264;28;20045;-63
2021/11/02 02:39:15;;;;;;;3.13;0.60;;;5.80;99.90;;;;;;5026731;28;20520;-64
2021/11/02 02:41:41;;;;;;;6.30;0.63;;;5.80;99.90;;;;;;5027010;28;20037;-63
2021/11/02 02:44:11;;;;;;;4.20;0.50;;;5.80;99.90;;;;;;5026649;28;20042;-64
2021/11/02 02:46:38;;;;;;;4.97;0.68;;;5.80;99.90;;;;;;5024365;28;20084;-64
2021/11/02 02:49:05;;;;;;;0.88;0.35;;;5.80;99.90;;;;;;5026401;28;20037;-63
2021/11/02 02:51:34;;;;;;;3.95;0.50;;;5.80;99.90;;;;;;5026345;28;20036;-63
2021/11/02 02:54:00;;;;;;;3.25;0.50;;;5.90;99.90;;;;;;5025617;28;20037;-63
2021/11/02 02:56:28;;;;;;;0.80;0.32;;;5.90;99.90;;;;;;5026103;28;20049;-64
2021/11/02 02:58:58;;;;;;;1.80;0.40;;;5.90;99.90;;;;;;5026289;28;20532;-63
2021/11/02 03:01:25;;;;;;;1.67;0.50;;;5.90;99.90;;;;;;5025303;28;20065;-63
2021/11/02 03:03:57;;;;;;;6.28;0.50;;;5.90;99.90;;;;;;5025859;28;20524;-63
2021/11/02 03:06:26;;;;;;;4.70;0.60;;;5.90;99.90;;;;;;5025785;28;20046;-63
2021/11/02 03:08:53;;;;;;;2.22;0.50;;;6.00;99.90;;;;;;5026582;28;20051;-63
2021/11/02 03:11:20;;;;;;;4.15;0.80;;;6.00;99.90;;;;;;5026852;28;20121;-63
2021/11/02 03:13:50;;;;;;;2.75;1.00;;;6.00;99.90;;;;;;5026602;28;20038;-63
2021/11/02 03:16:21;;;;;;;2.53;0.50;;;6.00;99.90;;;;;;5025400;28;20041;-63
2021/11/02 03:45:01;;;;;;;2.00;1.27;;;6.30;99.90;;;;;;5026220;28;20046;-64
2021/11/02 03:49:53;;;;;;;5.13;1.50;;;6.40;99.90;;;;;;5026252;28;20045;-63
2021/11/02 03:54:59;;;;;;;3.05;1.25;;;6.50;99.90;;;;;;5029842;28;20045;-63
2021/11/02 03:57:51;;;;;;;3.30;1.20;;;6.50;99.90;;;;;;5029853;28;20045;-63
2021/11/02 04:00:29;;;;;;;3.08;1.25;;;6.50;99.90;;;;;;5029430;28;20801;-63
2021/11/02 04:28:41;;;;;;;1.92;1.35;;;6.40;99.90;;;;;;5029293;28;20046;-63
2021/11/02 04:31:40;;;;;;;2.88;0.90;;;6.30;99.90;;;;;;5029441;28;20092;-63
2021/11/02 04:34:42;;;;;;;3.05;1.13;;;6.30;99.90;;;;;;5029865;28;20077;-63
2021/11/02 05:10:05;;;;;;;1.95;0.98;;;6.20;99.90;;;;;;5027872;28;20092;-64
2021/11/02 05:48:30;;;;;;;55.92;23.70;;;6.50;99.90;;;;;;5027593;28;20041;-65
2021/11/02 05:53:40;;;;;;;;;;;6.50;99.90;;;;;;5028177;28;20057;-65
2021/11/02 05:58:50;;;;;;;5.63;2.30;;;6.50;99.90;;;;;;5027444;28;20092;-64
2021/11/02 06:28:49;;;;;;;109.78;55.20;;;6.60;99.90;;;;;;5023269;28;20045;-64
2021/11/02 06:31:35;;;;;;;21.88;11.02;;;6.70;99.90;;;;;;5024808;28;20460;-63
2021/11/02 06:39:48;;;;;;;4.55;1.00;;;6.80;99.90;;;;;;5023708;28;20675;-63
2021/11/02 07:15:47;;;;;;;1.92;1.02;;;6.90;99.90;;;;;;5026779;28;20057;-63
2021/11/02 07:18:27;;;;;;;3.17;1.02;;;6.90;99.90;;;;;;5026677;28;20045;-62
2021/11/02 07:21:02;;;;;;;2.38;0.93;;;6.90;99.90;;;;;;5026091;28;20049;-63
2021/11/02 07:29:27;;;;;;;2.40;1.45;;;7.00;99.90;;;;;;5029463;28;20048;-62
2021/11/02 08:47:33;;;;;;;4.90;2.50;;;7.50;99.90;;;;;;5028253;28;20099;-64
2021/11/02 08:49:59;;;;;;;3.20;2.22;;;7.60;99.90;;;;;;5029277;28;20124;-63
2021/11/02 08:52:25;;;;;;;5.97;2.35;;;7.70;99.90;;;;;;5028864;28;20080;-63
2021/11/02 08:54:53;;;;;;;4.47;2.65;;;7.90;99.90;;;;;;5029300;28;20465;-64
2021/11/02 08:57:20;;;;;;;3.85;1.98;;;8.10;99.90;;;;;;5059761;28;20096;-63
2021/11/02 08:59:47;;;;;;;7.18;2.00;;;8.00;99.90;;;;;;5028561;28;20037;-63
2021/11/02 09:02:25;;;;;;;3.88;1.88;;;8.00;99.90;;;;;;5029238;28;20395;-63
2021/11/02 09:05:13;;;;;;;7.70;4.00;;;8.10;99.90;;;;;;5008920;28;20046;-64
2021/11/02 09:07:40;;;;;;;13.95;7.07;;;8.10;99.90;;;;;;5008547;28;20081;-63
2021/11/02 09:10:19;;;;;;;3.13;1.88;;;8.20;99.90;;;;;;5025023;28;20090;-64
2021/11/02 09:12:49;;;;;;;22.45;11.95;;;8.40;99.90;;;;;;5028759;28;20037;-64
2021/11/02 09:15:21;;;;;;;8.35;4.22;;;8.40;99.90;;;;;;5028343;28;20079;-63
2021/11/02 09:17:50;;;;;;;18.20;6.25;;;8.50;99.90;;;;;;5031354;28;20061;-64
2021/11/02 09:20:17;;;;;;;4.20;2.08;;;8.50;99.90;;;;;;5029392;28;20048;-64
2021/11/02 09:22:45;;;;;;;3.85;1.67;;;8.60;99.90;;;;;;5035224;28;20037;-64
2021/11/02 09:25:11;;;;;;;3.35;1.65;;;8.70;99.90;;;;;;5028690;28;20042;-64
2021/11/02 09:27:39;;;;;;;5.55;1.52;;;8.80;99.90;;;;;;5028377;28;20056;-64
2021/11/02 09:30:06;;;;;;;3.58;1.38;;;8.90;99.90;;;;;;5020152;28;20044;-65
2021/11/02 09:32:35;;;;;;;2.72;1.08;;;9.00;99.90;;;;;;5028308;28;20204;-64
2021/11/02 09:35:00;;;;;;;1.25;1.10;;;9.10;99.90;;;;;;5028259;28;20428;-65
2021/11/02 09:37:31;;;;;;;;;;;8.90;99.90;;;;;;5028585;28;20041;-64
2021/11/02 09:40:05;;;;;;;2.05;0.95;;;8.90;99.90;;;;;;5028123;28;19947;-64
2021/11/02 09:43:29;;;;;;;2.35;1.10;;;9.00;99.90;;;;;;5028304;28;20041;-64
2021/11/02 09:46:09;;;;;;;3.65;1.42;;;9.10;99.90;;;;;;5027344;28;20099;-63
2021/11/02 09:48:55;;;;;;;4.45;1.00;;;9.00;99.90;;;;;;5028964;28;20583;-64
2021/11/02 09:51:54;;;;;;;2.40;1.35;;;9.00;99.90;;;;;;5027279;28;20125;-64
2021/11/02 09:54:27;;;;;;;3.45;1.05;;;9.00;99.90;;;;;;5028338;28;20045;-64
2021/11/02 09:57:34;;;;;;;2.05;1.05;;;8.90;99.90;;;;;;5028333;28;20045;-64
2021/11/02 10:00:07;;;;;;;2.95;1.00;;;8.80;99.90;;;;;;5025812;28;20413;-65
2021/11/02 10:03:12;;;;;;;2.47;1.20;;;8.80;99.90;;;;;;5024923;28;20033;-63
2021/11/02 10:05:49;;;;;;;11.55;5.13;;;8.80;99.90;;;;;;5017411;28;20057;-64
2021/11/02 10:08:32;;;;;;;11.18;4.30;;;8.80;99.90;;;;;;5026714;28;20037;-64
2021/11/02 10:11:22;;;;;;;7.68;2.97;;;8.70;99.90;;;;;;5026958;28;20120;-64
2021/11/02 10:14:04;;;;;;;8.38;3.45;;;8.70;99.90;;;;;;5027590;28;20794;-64
2021/11/02 10:16:42;;;;;;;6.47;3.13;;;8.70;99.90;;;;;;5019873;28;20045;-64
2021/11/02 10:19:47;;;;;;;8.40;4.35;;;8.70;99.90;;;;;;5024431;28;20047;-63
2021/11/02 10:22:29;;;;;;;6.45;2.42;;;8.80;99.90;;;;;;5024855;28;20175;-63
2021/11/02 10:25:29;;;;;;;8.20;1.75;;;8.90;99.90;;;;;;5026821;28;20037;-62
2021/11/02 10:28:26;;;;;;;5.47;1.55;;;8.90;99.90;;;;;;5024752;28;20095;-64
2021/11/02 10:31:02;;;;;;;3.97;1.45;;;8.90;99.90;;;;;;5025066;28;20409;-64
2021/11/02 10:33:35;;;;;;;2.80;1.40;;;8.80;99.90;;;;;;5026432;28;20048;-64
2021/11/02 10:36:34;;;;;;;6.35;1.48;;;8.70;99.90;;;;;;5023370;28;20045;-64
2021/11/02 10:39:17;;;;;;;3.90;1.60;;;8.80;99.90;;;;;;5025280;28;20505;-63
2021/11/02 10:42:05;;;;;;;4.35;1.73;;;8.80;99.90;;;;;;5020339;28;20250;-63
2021/11/02 10:44:57;;;;;;;4.55;1.58;;;8.90;99.90;;;;;;5016165;28;20438;-63
2021/11/02 10:47:29;;;;;;;9.15;1.85;;;9.00;99.90;;;;;;5026612;28;20045;-65
2021/11/02 10:50:11;;;;;;;5.88;1.48;;;9.10;99.90;;;;;;5026989;28;20037;-63
2021/11/02 10:52:40;;;;;;;4.22;1.52;;;9.30;99.90;;;;;;5026631;28;20076;-63
2021/11/02 10:55:22;;;;;;;6.50;1.95;;;9.30;99.90;;;;;;5027115;28;20037;-63
2021/11/02 10:58:12;;;;;;;4.30;1.30;;;9.50;99.90;;;;;;5026277;28;20045;-64
2021/11/02 11:00:40;;;;;;;8.43;1.75;;;9.60;99.90;;;;;;5025404;28;20065;-63
2021/11/02 11:03:09;;;;;;;2.15;1.38;;;9.60;99.90;;;;;;5024786;28;20042;-64
2021/11/02 11:05:35;;;;;;;9.15;1.63;;;9.40;99.90;;;;;;5026479;28;20041;-63
2021/11/02 11:08:01;;;;;;;;;;;9.40;99.90;;;;;;5026432;28;20094;-63
2021/11/02 11:10:28;;;;;;;4.03;1.40;;;9.40;99.90;;;;;;5026306;28;20309;-63
2021/11/02 11:12:56;;;;;;;9.43;2.70;;;9.30;99.90;;;;;;5025359;28;20176;-63
2021/11/02 11:15:24;;;;;;;5.70;1.35;;;9.30;99.90;;;;;;5025948;28;20519;-63
2021/11/02 11:18:00;;;;;;;5.72;1.60;;;9.40;99.90;;;;;;5025569;28;20053;-63
2021/11/02 11:20:26;;;;;;;6.45;1.30;;;9.50;99.90;;;;;;5026349;28;20076;-63
2021/11/02 11:22:52;;;;;;;;;;;9.50;99.90;;;;;;5026644;28;20081;-63
2021/11/02 11:25:29;;;;;;;7.40;2.75;;;9.40;99.90;;;;;;5024967;28;19967;-63
2021/11/02 11:27:57;;;;;;;8.05;2.20;;;9.40;99.90;;;;;;5025994;28;20049;-63
2021/11/02 11:30:28;;;;;;;11.32;3.92;;;9.40;99.90;;;;;;5026035;28;20049;-63
2021/11/02 11:32:54;;;;;;;22.08;7.88;;;9.30;99.90;;;;;;5025817;28;20037;-63
2021/11/02 11:35:20;;;;;;;5.75;2.30;;;9.40;99.90;;;;;;5026215;28;20044;-63
2021/11/02 11:37:48;;;;;;;10.93;3.58;;;9.20;99.90;;;;;;5025837;28;20414;-64
2021/11/02 11:40:18;;;;;;;3.03;1.25;;;9.20;99.90;;;;;;5026481;28;20564;-64
2021/11/02 11:42:52;;;;;;;7.47;1.50;;;9.20;99.90;;;;;;5026649;28;20042;-62
2021/11/02 11:45:22;;;;;;;6.18;1.35;;;9.10;99.90;;;;;;5025393;28;20033;-63
2021/11/02 11:48:13;;;;;;;5.18;1.08;;;9.00;99.90;;;;;;5026065;28;20045;-67
2021/11/02 11:50:40;;;;;;;4.88;1.35;;;9.00;99.90;;;;;;5026462;28;20129;-63
2021/11/02 11:53:08;;;;;;;2.35;0.95;;;9.10;99.90;;;;;;5025970;28;20045;-63
2021/11/02 11:55:40;;;;;;;5.35;1.20;;;9.20;99.90;;;;;;5025721;28;20112;-62
2021/11/02 11:58:23;;;;;;;4.78;1.83;;;9.30;99.90;;;;;;5025707;28;20781;-63
2021/11/02 12:01:04;;;;;;;2.40;0.90;;;9.30;99.90;;;;;;5025916;28;20147;-63
2021/11/02 12:03:36;;;;;;;2.35;0.60;;;9.30;99.90;;;;;;5025761;28;20107;-66
2021/11/02 12:06:27;;;;;;;5.78;1.10;;;9.30;99.90;;;;;;5023992;28;20042;-64
2021/11/02 12:09:15;;;;;;;2.58;0.88;;;9.30;99.90;;;;;;5026036;28;20069;-65
2021/11/02 12:11:42;;;;;;;3.15;0.80;;;9.40;99.90;;;;;;5025833;28;20050;-63
2021/11/02 12:14:08;;;;;;;2.15;0.88;;;9.40;99.90;;;;;;5027531;28;20041;-64
2021/11/02 12:16:40;;;;;;;2.92;0.98;;;9.60;99.90;;;;;;5028226;28;20145;-62
2021/11/02 12:19:35;;;;;;;1.27;0.60;;;9.70;99.90;;;;;;5027544;28;20107;-63
2021/11/02 12:22:05;;;;;;;3.90;1.05;;;9.80;99.90;;;;;;5014713;28;20117;-63
2021/11/02 12:24:35;;;;;;;2.58;0.47;;;9.80;99.90;;;;;;5029138;28;20034;-64
2021/11/02 12:27:19;;;;;;;5.18;1.00;;;9.80;99.90;;;;;;5028323;28;20574;-64
2021/11/02 12:29:49;;;;;;;7.90;0.65;;;9.70;99.90;;;;;;5029611;28;20053;-63
2021/11/02 12:32:22;;;;;;;2.97;0.95;;;9.60;99.90;;;;;;5029137;28;20034;-64
2021/11/02 12:35:03;;;;;;;4.68;0.73;;;9.50;99.90;;;;;;5029731;28;20056;-64
2021/11/02 12:37:29;;;;;;;2.13;0.77;;;9.50;99.90;;;;;;5029862;28;20049;-64
2021/11/02 12:39:54;;;;;;;;;;;9.50;99.90;;;;;;5030519;28;20087;-63
2021/11/02 12:42:36;;;;;;;3.45;0.80;;;9.40;99.90;;;;;;5029889;28;19924;-63
2021/11/02 12:45:02;;;;;;;3.25;0.90;;;9.30;99.90;;;;;;5029377;28;20705;-63
2021/11/02 12:47:31;;;;;;;4.00;1.00;;;9.20;99.90;;;;;;5028070;28;20046;-64
2021/11/02 12:49:59;;;;;;;5.25;0.70;;;9.20;99.90;;;;;;5029927;28;20049;-63
2021/11/02 12:52:29;;;;;;;2.58;0.65;;;9.20;99.90;;;;;;5028760;28;20056;-64
2021/11/02 12:55:04;;;;;;;3.80;0.85;;;9.20;99.90;;;;;;5029163;28;20157;-64
2021/11/02 12:57:48;;;;;;;6.07;0.70;;;9.30;99.90;;;;;;5029155;28;20045;-63
2021/11/02 13:00:27;;;;;;;4.78;1.02;;;9.30;99.90;;;;;;5027600;28;20052;-64
2021/11/02 13:03:05;;;;;;;4.63;0.70;;;9.20;99.90;;;;;;5029054;28;20039;-64
2021/11/02 13:05:31;;;;;;;2.97;1.30;;;9.10;99.90;;;;;;5028434;28;20044;-63
2021/11/02 13:08:07;;;;;;;;;;;9.10;99.90;;;;;;5029027;28;20042;-64
2021/11/02 13:10:34;;;;;;;4.78;1.05;;;9.10;99.90;;;;;;5023694;28;19917;-64
2021/11/02 13:13:11;;;;;;;5.80;0.80;;;9.10;99.90;;;;;;5028445;28;20099;-63
2021/11/02 13:15:54;;;;;;;2.88;0.60;;;9.10;99.90;;;;;;5027829;28;20034;-64
2021/11/02 13:18:37;;;;;;;5.05;1.00;;;9.20;99.90;;;;;;5027944;28;20095;-63
2021/11/02 13:21:24;;;;;;;2.40;0.50;;;9.30;99.90;;;;;;5028364;28;20042;-64
2021/11/02 13:23:55;;;;;;;1.30;0.60;;;9.30;99.90;;;;;;5028449;28;20041;-64
2021/11/02 13:26:22;;;;;;;1.60;0.60;;;9.30;99.90;;;;;;5027997;28;20107;-64
2021/11/02 13:28:48;;;;;;;4.20;0.80;;;9.30;99.90;;;;;;5028175;28;20091;-63
2021/11/02 13:31:30;;;;;;;1.55;0.80;;;9.40;99.90;;;;;;5027670;28;20520;-62
2021/11/02 13:34:00;;;;;;;4.35;0.88;;;9.40;99.90;;;;;;5027504;28;20041;-64
2021/11/02 13:36:26;;;;;;;4.68;1.55;;;9.40;99.90;;;;;;5027673;28;20049;-64
2021/11/02 13:38:59;;;;;;;;;;;9.40;99.90;;;;;;5027843;28;20045;-64
2021/11/02 13:41:53;;;;;;;9.05;2.70;;;9.30;99.90;;;;;;5027467;28;19923;-65
2021/11/02 13:44:20;;;;;;;4.72;2.25;;;9.30;99.90;;;;;;5010907;28;20049;-63
2021/11/02 13:46:54;;;;;;;3.42;1.20;;;9.30;99.90;;;;;;5025525;28;20045;-63
2021/11/02 13:49:21;;;;;;;6.35;1.20;;;9.30;99.90;;;;;;5028000;28;20131;-63
2021/11/02 13:51:49;;;;;;;5.15;0.93;;;9.20;99.90;;;;;;5026619;28;20078;-63
2021/11/02 13:54:15;;;;;;;3.08;1.02;;;9.10;99.90;;;;;;5026599;28;20034;-64
2021/11/02 13:56:42;;;;;;;;;;;8.90;99.90;;;;;;5027237;28;20099;-65
2021/11/02 13:59:09;;;;;;;10.82;2.97;;;8.90;99.90;;;;;;5023885;28;19924;-63
2021/11/02 14:01:36;;;;;;;12.18;5.10;;;8.90;99.90;;;;;;5026346;28;20045;-64
2021/11/02 14:04:17;;;;;;;23.38;10.85;;;9.00;99.90;;;;;;5026917;28;20039;-64
2021/11/02 14:06:49;;;;;;;6.38;2.90;;;9.00;99.90;;;;;;5024368;28;20124;-64
2021/11/02 14:09:17;;;;;;;15.90;6.07;;;8.90;99.90;;;;;;5025120;28;20048;-63
2021/11/02 14:11:43;;;;;;;4.38;1.17;;;8.90;99.90;;;;;;5024877;28;20037;-63
2021/11/02 14:14:11;;;;;;;1.88;0.70;;;8.90;99.90;;;;;;5026252;28;20037;-62
2021/11/02 14:16:39;;;;;;;2.15;1.05;;;8.80;99.90;;;;;;5024536;28;20037;-65
2021/11/02 14:19:41;;;;;;;0.95;0.60;;;8.80;99.90;;;;;;5027728;28;20041;-64
2021/11/02 14:22:11;;;;;;;4.88;1.00;;;8.70;99.90;;;;;;4984283;28;20034;-64
2021/11/02 14:24:44;;;;;;;3.58;1.20;;;8.70;99.90;;;;;;5018516;28;20045;-63
2021/11/02 14:27:20;;;;;;;2.78;0.70;;;8.70;99.90;;;;;;5026067;28;20045;-63
2021/11/02 14:29:56;;;;;;;6.47;0.60;;;8.70;99.90;;;;;;5027103;28;20145;-64
2021/11/02 14:32:37;;;;;;;6.80;0.60;;;8.60;99.90;;;;;;5025848;28;20098;-64
2021/11/02 14:35:04;;;;;;;5.82;0.82;;;8.60;99.90;;;;;;5026050;28;20042;-64
2021/11/02 14:37:50;;;;;;;2.20;0.65;;;8.70;99.90;;;;;;5026208;28;20405;-64
2021/11/02 14:40:33;;;;;;;4.63;0.80;;;8.70;99.90;;;;;;5026393;28;20910;-64
2021/11/02 14:43:19;;;;;;;0.68;0.20;;;8.60;99.90;;;;;;5025683;28;20041;-65
2021/11/02 14:45:58;;;;;;;0.85;0.30;;;8.60;99.90;;;;;;5024677;28;20121;-64
2021/11/02 14:48:32;;;;;;;1.45;0.40;;;8.60;99.90;;;;;;5018836;28;20044;-66
2021/11/02 14:51:07;;;;;;;2.63;0.85;;;8.60;99.90;;;;;;5022331;28;20540;-63
2021/11/02 14:53:35;;;;;;;1.50;0.50;;;8.50;99.90;;;;;;5025350;28;20692;-64
2021/11/02 14:56:17;;;;;;;1.73;0.43;;;8.60;99.90;;;;;;5024157;28;20048;-64
2021/11/02 14:58:53;;;;;;;6.97;2.47;;;8.50;99.90;;;;;;5024816;28;20037;-64
2021/11/02 15:01:31;;;;;;;3.90;1.25;;;8.50;99.90;;;;;;5025042;28;20040;-64
2021/11/02 15:04:07;;;;;;;1.65;0.65;;;8.50;99.90;;;;;;5024412;28;20041;-64
2021/11/02 15:06:39;;;;;;;2.63;0.73;;;8.50;99.90;;;;;;5024728;28;20525;-64
2021/11/02 15:09:10;;;;;;;1.58;0.57;;;8.50;99.90;;;;;;5018627;28;20038;-64
2021/11/02 15:11:47;;;;;;;3.45;0.50;;;8.50;99.90;;;;;;5026060;28;20037;-64
2021/11/02 15:14:23;;;;;;;2.53;0.43;;;8.40;99.90;;;;;;5023633;28;20093;-65
2021/11/02 15:17:01;;;;;;;2.78;0.75;;;8.50;99.90;;;;;;5023670;28;20508;-65
2021/11/02 15:19:29;;;;;;;1.63;0.50;;;8.50;99.90;;;;;;5025830;28;20716;-64
2021/11/02 15:21:57;;;;;;;3.70;0.50;;;8.40;99.90;;;;;;5025164;28;20125;-64
2021/11/02 15:24:34;;;;;;;2.60;0.77;;;8.40;99.90;;;;;;5025148;28;20042;-63
2021/11/02 15:27:06;;;;;;;4.15;0.77;;;8.50;99.90;;;;;;5024525;28;20133;-64
2021/11/02 15:29:36;;;;;;;1.55;0.60;;;8.40;99.90;;;;;;5025323;28;20116;-63
2021/11/02 15:32:11;;;;;;;2.20;0.45;;;8.40;99.90;;;;;;5024436;28;20037;-64
2021/11/02 15:34:53;;;;;;;1.95;0.50;;;8.30;99.90;;;;;;5024156;28;20405;-65
2021/11/02 15:37:34;;;;;;;1.67;0.57;;;8.30;99.90;;;;;;5024747;28;20050;-64
2021/11/02 15:40:08;;;;;;;4.70;0.70;;;8.20;99.90;;;;;;5025154;28;20444;-64
2021/11/02 15:42:43;;;;;;;5.05;0.47;;;8.30;99.90;;;;;;5024986;28;20052;-64
2021/11/02 15:45:21;;;;;;;1.85;0.60;;;8.20;99.90;;;;;;5024284;28;20044;-64
2021/11/02 15:47:49;;;;;;;2.72;0.60;;;8.30;99.90;;;;;;5024264;28;20497;-64
2021/11/02 15:50:18;;;;;;;5.63;0.93;;;8.30;99.90;;;;;;5028476;28;20044;-64
2021/11/02 15:52:44;;;;;;;3.40;1.05;;;8.30;99.90;;;;;;5029362;28;20099;-65
2021/11/02 15:55:17;;;;;;;;;;;8.30;99.90;;;;;;5028892;28;20786;-63
2021/11/02 15:57:53;;;;;;;0.95;0.45;;;8.20;99.90;;;;;;5028518;28;19917;-64
2021/11/02 16:00:26;;;;;;;4.78;0.93;;;8.20;99.90;;;;;;5028495;28;20045;-65
2021/11/02 16:02:52;;;;;;;3.97;0.82;;;8.20;99.90;;;;;;5028564;28;20044;-65
2021/11/02 16:05:29;;;;;;;2.40;1.08;;;8.10;99.90;;;;;;5030111;28;20045;-64
2021/11/02 16:07:56;;;;;;;;;;;8.10;99.90;;;;;;5029536;28;20045;-62
2021/11/02 16:10:27;;;;;;;16.13;7.45;;;8.20;99.90;;;;;;5028480;28;19921;-64
2021/11/02 16:12:53;;;;;;;18.42;9.25;;;8.20;99.90;;;;;;5029622;28;20045;-63
2021/11/02 16:15:23;;;;;;;9.40;4.45;;;8.20;99.90;;;;;;5027786;28;20041;-63
2021/11/02 16:17:51;;;;;;;8.90;4.15;;;8.10;99.90;;;;;;5027829;28;20473;-63
2021/11/02 16:20:30;;;;;;;7.53;3.08;;;8.10;99.90;;;;;;5029673;28;20053;-63
2021/11/02 16:23:23;;;;;;;5.28;2.08;;;8.10;99.90;;;;;;5029197;28;20121;-63
2021/11/02 16:25:56;;;;;;;3.40;1.20;;;8.10;99.90;;;;;;5027235;28;20060;-63
2021/11/02 16:28:33;;;;;;;68.97;36.08;;;8.00;99.90;;;;;;5028553;28;20041;-62
2021/11/02 16:31:02;;;;;;;12.35;5.68;;;8.00;99.90;;;;;;5027122;28;20578;-63
2021/11/02 16:33:45;;;;;;;15.02;7.78;;;8.00;99.90;;;;;;5028600;28;20041;-63
2021/11/02 16:36:23;;;;;;;5.25;2.85;;;7.90;99.90;;;;;;5027965;28;20128;-63
2021/11/02 16:38:52;;;;;;;22.30;8.73;;;8.00;99.90;;;;;;5029573;28;20048;-63
2021/11/02 16:41:33;;;;;;;30.52;13.65;;;7.90;99.90;;;;;;5027725;28;20120;-63
2021/11/02 16:44:08;;;;;;;6.63;2.80;;;7.90;99.90;;;;;;5025721;28;20473;-63
2021/11/02 16:46:37;;;;;;;7.20;1.60;;;7.90;99.90;;;;;;5024143;28;20056;-63
2021/11/02 16:49:21;;;;;;;3.92;1.30;;;7.80;99.90;;;;;;5018849;28;20117;-63
2021/11/02 16:52:07;;;;;;;4.40;0.98;;;7.80;99.90;;;;;;5028733;28;20037;-63
2021/11/02 16:54:44;;;;;;;3.85;0.95;;;7.80;99.90;;;;;;5028895;28;20049;-63
2021/11/02 16:57:20;;;;;;;1.02;0.80;;;7.80;99.90;;;;;;5027926;28;20458;-64
2021/11/02 16:59:49;;;;;;;1.42;1.00;;;7.80;99.90;;;;;;5027468;28;20060;-63
2021/11/02 17:02:17;;;;;;;1.50;0.77;;;7.90;99.90;;;;;;5021517;28;20037;-63
2021/11/02 17:05:10;;;;;;;3.45;1.20;;;7.90;99.90;;;;;;5023744;28;20582;-64
2021/11/02 17:08:01;;;;;;;2.85;0.70;;;7.90;99.90;;;;;;5027387;28;20095;-63
2021/11/02 17:10:27;;;;;;;2.58;1.00;;;7.90;99.90;;;;;;5028213;28;20045;-62
2021/11/02 17:13:00;;;;;;;3.17;1.23;;;7.90;99.90;;;;;;5026290;28;20034;-62
2021/11/02 17:15:33;;;;;;;4.57;0.98;;;7.90;99.90;;;;;;5022436;28;20481;-63
2021/11/02 17:18:00;;;;;;;6.63;0.82;;;7.90;99.90;;;;;;5028392;28;20928;-64
2021/11/02 17:20:26;;;;;;;3.53;1.27;;;7.90;99.90;;;;;;5027642;28;20060;-63
2021/11/02 17:22:53;;;;;;;1.23;0.85;;;7.90;99.90;;;;;;5027873;28;20052;-64
2021/11/02 17:25:20;;;;;;;1.58;0.70;;;7.80;99.90;;;;;;5026769;28;20049;-62
2021/11/02 17:27:47;;;;;;;1.77;0.52;;;7.90;99.90;;;;;;5026510;28;20045;-64
2021/11/02 17:30:22;;;;;;;5.93;1.65;;;7.90;99.90;;;;;;5026914;28;20041;-63
2021/11/02 17:32:48;;;;;;;4.18;0.90;;;8.00;99.90;;;;;;5027550;28;20045;-64
2021/11/02 17:35:14;;;;;;;;;;;7.90;99.90;;;;;;5027272;28;20764;-64
2021/11/02 17:37:41;;;;;;;3.90;2.80;;;7.90;99.90;;;;;;5026923;28;19944;-64
2021/11/02 17:40:07;;;;;;;3.83;2.10;;;7.90;99.90;;;;;;5026752;28;20045;-64
2021/11/02 17:42:33;;;;;;;9.15;1.38;;;7.90;99.90;;;;;;5026325;28;20402;-63
2021/11/02 17:44:58;;;;;;;;;;;7.80;99.90;;;;;;5026672;28;20037;-64
2021/11/02 17:47:24;;;;;;;1.40;0.65;;;7.70;99.90;;;;;;5026254;28;19921;-70
2021/11/02 17:49:50;;;;;;;;;;;7.80;99.90;;;;;;5028976;28;20033;-64
2021/11/02 17:52:16;;;;;;;2.75;0.90;;;7.80;99.90;;;;;;5028250;28;19982;-64
2021/11/02 17:54:42;;;;;;;;;;;7.70;99.90;;;;;;5027928;28;20049;-64
2021/11/02 17:57:08;;;;;;;0.90;0.50;;;7.60;99.90;;;;;;5026789;28;19917;-64
2021/11/02 17:59:36;;;;;;;172.15;79.63;;;7.60;99.90;;;;;;5027973;28;20085;-64
2021/11/02 18:02:04;;;;;;;36.28;16.60;;;7.60;99.90;;;;;;5030025;28;20073;-64
2021/11/02 18:04:32;;;;;;;12.35;5.18;;;7.50;99.90;;;;;;5026883;28;20045;-64
2021/11/02 18:06:59;;;;;;;8.15;3.70;;;7.50;99.90;;;;;;5025140;28;20539;-61
2021/11/02 18:09:25;;;;;;;163.10;78.85;;;7.50;99.90;;;;;;5026693;28;21254;-63
2021/11/02 18:11:51;;;;;;;;;;;7.60;99.90;;;;;;5025896;28;20041;-63
2021/11/02 18:14:16;;;;;;;40.75;18.70;;;7.50;99.90;;;;;;5026713;28;20289;-63